createdAt,value
2023-01-10T00:00:50.511Z,72.46
2023-01-10T00:04:53.574Z,72.25
2023-01-10T00:08:57.610Z,71.82
2023-01-10T00:13:19.488Z,72.06
2023-01-10T00:17:22.493Z,71.90
2023-01-10T00:21:25.569Z,72.25
2023-01-10T00:25:28.726Z,72.11
2023-01-10T00:29:34.136Z,71.97
2023-01-10T00:33:37.989Z,72.15
2023-01-10T00:37:41.948Z,71.74
2023-01-10T00:42:02.400Z,71.45
2023-01-10T00:46:07.051Z,71.27
2023-01-10T00:50:11.146Z,71.57
2023-01-10T00:54:15.126Z,71.07
2023-01-10T00:58:18.732Z,71.22
2023-01-10T01:02:23.939Z,71.59
2023-01-10T01:06:27.723Z,71.29
2023-01-10T01:10:30.756Z,71.30
2023-01-10T01:14:33.788Z,71.54
2023-01-10T01:18:38.196Z,71.24
2023-01-10T01:22:41.693Z,71.50
2023-01-10T01:26:45.746Z,71.22
2023-01-10T01:30:49.177Z,71.00
2023-01-10T01:34:53.687Z,71.10
2023-01-10T01:38:56.701Z,71.33
2023-01-10T01:43:00.140Z,71.04
2023-01-10T01:47:07.654Z,71.15
2023-01-10T01:51:18.810Z,71.09
2023-01-10T01:55:22.680Z,70.58
2023-01-10T01:59:29.969Z,70.58
2023-01-10T02:03:33.393Z,70.77
2023-01-10T02:07:39.751Z,70.43
2023-01-10T02:11:42.737Z,70.34
2023-01-10T02:15:45.946Z,70.63
2023-01-10T02:19:53.535Z,71.06
2023-01-10T02:24:31.055Z,71.17
2023-01-10T02:29:01.067Z,71.53
2023-01-10T02:33:15.394Z,72.17
2023-01-10T02:37:25.926Z,72.40
2023-01-10T02:41:34.561Z,72.34
2023-01-10T02:45:42.099Z,72.67
2023-01-10T02:49:48.378Z,72.76
2023-01-10T02:53:56.297Z,72.83
2023-01-10T02:58:09.074Z,72.69
2023-01-10T03:02:21.904Z,73.07
2023-01-10T03:06:37.071Z,73.25
2023-01-10T03:10:45.942Z,73.73
2023-01-10T03:14:50.370Z,73.95
2023-01-10T03:18:58.856Z,74.16
2023-01-10T03:23:05.978Z,74.12
2023-01-10T03:27:15.042Z,74.55
2023-01-10T03:31:22.674Z,74.70
2023-01-10T03:35:31.744Z,75.17
2023-01-10T03:39:47.405Z,75.26
2023-01-10T03:44:15.778Z,75.79
2023-01-10T03:48:22.152Z,75.93
2023-01-10T03:52:26.765Z,75.93
2023-01-10T03:56:31.261Z,76.51
2023-01-10T04:00:34.405Z,76.69
2023-01-10T04:04:37.638Z,77.29
2023-01-10T04:08:40.657Z,77.39
2023-01-10T04:12:45.343Z,77.63
2023-01-10T04:16:48.337Z,77.74
2023-01-10T04:20:52.278Z,77.94
2023-01-10T04:24:55.376Z,78.23
2023-01-10T04:28:59.761Z,78.46
2023-01-10T04:33:02.769Z,78.75
2023-01-10T04:37:05.859Z,79.04
2023-01-10T04:41:08.869Z,79.16
2023-01-10T04:45:17.636Z,79.62
2023-01-10T04:49:20.967Z,79.70
2023-01-10T04:53:24.269Z,80.18
2023-01-10T04:57:27.355Z,79.96
2023-01-10T05:01:31.810Z,79.93
2023-01-10T05:05:34.939Z,80.33
2023-01-10T05:09:37.981Z,80.33
2023-01-10T05:13:42.644Z,80.39
2023-01-10T05:17:47.207Z,80.88
2023-01-10T05:21:52.147Z,80.92
2023-01-10T05:25:55.591Z,81.03
2023-01-10T05:29:58.605Z,80.94
2023-01-10T05:34:03.844Z,80.93
2023-01-10T05:38:07.068Z,80.61
2023-01-10T05:42:10.079Z,80.52
2023-01-10T05:46:13.150Z,80.43
2023-01-10T05:50:19.046Z,80.29
2023-01-10T05:54:22.205Z,79.93
2023-01-10T05:58:26.507Z,80.18
2023-01-10T06:02:29.712Z,79.93
2023-01-10T06:06:34.453Z,79.90
2023-01-10T06:10:37.636Z,79.53
2023-01-10T06:14:40.638Z,79.62
2023-01-10T06:18:43.700Z,79.48
2023-01-10T06:22:48.111Z,79.57
2023-01-10T06:26:51.111Z,79.66
2023-01-10T06:30:54.288Z,79.49
2023-01-10T06:34:57.320Z,79.22
2023-01-10T06:39:02.059Z,79.18
2023-01-10T06:43:05.107Z,79.38
2023-01-10T06:47:08.274Z,79.58
2023-01-10T06:51:11.352Z,79.46
2023-01-10T06:55:15.900Z,79.17
2023-01-10T06:59:19.003Z,79.26
2023-01-10T07:03:22.249Z,79.31
2023-01-10T07:07:25.389Z,78.93
2023-01-10T07:11:29.797Z,79.10
2023-01-10T07:15:32.816Z,79.44
2023-01-10T07:19:35.855Z,79.48
2023-01-10T07:23:40.552Z,79.43
2023-01-10T07:27:45.061Z,79.12
2023-01-10T07:31:51.242Z,79.28
2023-01-10T07:35:54.562Z,79.28
2023-01-10T07:39:57.638Z,78.56
2023-01-10T07:44:02.101Z,78.51
2023-01-10T07:53:41.891Z,77.70
2023-01-10T07:57:44.849Z,77.91
2023-01-10T08:01:49.634Z,77.54
2023-01-10T08:05:59.293Z,77.13
2023-01-10T08:10:02.336Z,77.35
2023-01-10T08:14:05.452Z,77.22
2023-01-10T08:18:10.037Z,76.35
2023-01-10T08:22:13.274Z,76.08
2023-01-10T08:26:16.296Z,75.91
2023-01-10T08:30:19.607Z,75.99
2023-01-10T08:34:25.044Z,75.96
2023-01-10T08:38:29.449Z,75.55
2023-01-10T08:42:32.451Z,75.28
2023-01-10T08:46:35.551Z,74.98
2023-01-10T08:50:40.088Z,74.80
2023-01-10T08:54:43.359Z,74.63
2023-01-10T08:58:46.389Z,74.27
2023-01-10T09:02:49.463Z,74.55
2023-01-10T09:06:54.041Z,74.43
2023-01-10T09:11:00.077Z,74.26
2023-01-10T09:15:03.550Z,73.36
2023-01-10T09:19:06.808Z,73.53
2023-01-10T09:23:13.631Z,73.50
2023-01-10T09:27:16.861Z,73.32
2023-01-10T09:31:20.104Z,73.72
2023-01-10T09:35:23.844Z,73.68
2023-01-10T09:39:29.396Z,73.16
2023-01-10T09:43:42.875Z,73.70
2023-01-10T09:47:54.238Z,73.40
2023-01-10T09:51:59.499Z,72.96
2023-01-10T09:56:05.277Z,72.94
2023-01-10T10:00:16.765Z,72.39
2023-01-10T10:04:26.968Z,72.73
2023-01-10T10:08:30.596Z,71.46
2023-01-10T10:12:44.751Z,71.68
2023-01-10T10:17:00.619Z,71.59
2023-01-10T10:21:09.551Z,71.75
2023-01-10T10:25:26.308Z,71.41
2023-01-10T10:29:51.966Z,71.01
2023-01-10T10:34:01.750Z,71.27
2023-01-10T10:38:13.638Z,71.36
2023-01-10T10:42:19.244Z,71.21
2023-01-10T10:46:23.709Z,70.86
2023-01-10T10:50:32.631Z,71.18
2023-01-10T10:54:37.225Z,70.27
2023-01-10T10:58:43.335Z,70.96
2023-01-10T11:02:51.242Z,70.49
2023-01-10T11:06:54.504Z,70.28
2023-01-10T11:10:59.144Z,70.77
2023-01-10T11:15:02.216Z,69.76
2023-01-10T11:19:21.949Z,69.47
2023-01-10T11:23:30.516Z,69.88
2023-01-10T11:27:38.004Z,69.38
2023-01-10T11:31:42.182Z,69.24
2023-01-10T11:35:58.688Z,68.57
2023-01-10T11:40:26.721Z,68.50
2023-01-10T11:44:30.938Z,68.28
2023-01-10T11:49:04.960Z,67.67
2023-01-10T11:53:34.830Z,67.60
2023-01-10T11:57:38.778Z,66.68
2023-01-10T12:01:44.851Z,65.96
2023-01-10T12:05:52.936Z,65.96
2023-01-10T12:09:59.441Z,65.37
2023-01-10T12:14:03.020Z,65.97
2023-01-10T12:18:07.789Z,65.46
2023-01-10T12:22:16.779Z,64.96
2023-01-10T12:26:21.791Z,64.99
2023-01-10T12:30:32.756Z,64.98
2023-01-10T12:34:43.021Z,65.29
2023-01-10T12:39:06.026Z,64.81
2023-01-10T12:43:47.695Z,64.96
2023-01-10T12:48:00.295Z,64.55
2023-01-10T12:52:10.936Z,63.66
2023-01-10T12:56:16.926Z,63.02
2023-01-10T13:00:25.325Z,63.76
2023-01-10T13:04:32.723Z,63.43
2023-01-10T13:08:38.964Z,63.49
2023-01-10T13:12:46.776Z,62.87
2023-01-10T13:16:55.701Z,62.30
2023-01-10T13:21:08.865Z,62.59
2023-01-10T13:25:22.357Z,62.51
2023-01-10T13:29:27.779Z,62.17
2023-01-10T13:33:36.098Z,62.52
2023-01-10T13:37:41.320Z,62.19
2023-01-10T13:42:30.882Z,62.54
2023-01-10T13:46:42.527Z,62.88
2023-01-10T13:51:08.863Z,61.38
2023-01-10T13:55:29.396Z,61.22
2023-01-10T14:00:23.003Z,61.72
2023-01-10T14:04:28.849Z,61.40
2023-01-10T14:08:34.027Z,60.81
2023-01-10T14:12:41.295Z,61.07
2023-01-10T14:16:47.753Z,61.50
2023-01-10T14:20:59.033Z,61.57
2023-01-10T14:25:05.748Z,61.36
2023-01-10T14:29:13.881Z,61.86
2023-01-10T14:33:21.496Z,62.08
2023-01-10T14:37:32.031Z,62.39
2023-01-10T14:41:40.402Z,62.98
2023-01-10T14:45:50.953Z,62.97
2023-01-10T14:49:55.535Z,63.45
2023-01-10T14:54:01.453Z,63.35
2023-01-10T14:58:05.940Z,64.00
2023-01-10T15:02:17.068Z,63.86
2023-01-10T15:06:20.394Z,63.53
2023-01-10T15:10:27.164Z,63.38
2023-01-10T15:14:33.752Z,63.29
2023-01-10T15:18:40.388Z,63.50
2023-01-10T15:22:48.355Z,63.90
2023-01-10T15:26:53.830Z,64.46
2023-01-10T15:30:59.608Z,64.93
2023-01-10T15:35:04.058Z,65.41
2023-01-10T15:39:07.464Z,65.73
2023-01-10T15:43:23.865Z,66.20
2023-01-10T15:47:52.746Z,66.42
2023-01-10T15:51:56.771Z,66.82
2023-01-10T15:56:13.405Z,67.15
2023-01-10T16:00:19.019Z,67.47
2023-01-10T16:04:23.737Z,67.70
2023-01-10T16:08:28.959Z,67.57
2023-01-10T16:12:54.860Z,67.59
2023-01-10T16:16:57.932Z,67.45
2023-01-10T16:21:06.179Z,67.42
2023-01-10T16:25:15.430Z,67.61
2023-01-10T16:29:20.493Z,67.43
2023-01-10T16:33:26.987Z,67.19
2023-01-10T16:37:31.747Z,66.97
2023-01-10T16:41:52.117Z,66.97
2023-01-10T16:46:00.026Z,66.63
2023-01-10T16:50:03.283Z,66.35
2023-01-10T16:54:07.899Z,66.65
2023-01-10T16:58:11.826Z,67.02
2023-01-10T17:02:19.650Z,66.62
2023-01-10T17:06:22.986Z,66.86
2023-01-10T17:10:27.637Z,67.17
2023-01-10T17:14:31.484Z,67.40
2023-01-10T17:18:34.575Z,67.31
2023-01-10T17:22:37.612Z,67.32
2023-01-10T17:26:42.037Z,67.42
2023-01-10T17:30:45.926Z,68.01
2023-01-10T17:34:48.981Z,67.57
2023-01-10T17:38:52.223Z,67.65
2023-01-10T17:42:56.632Z,68.03
2023-01-10T17:46:59.656Z,68.35
2023-01-10T17:51:04.095Z,68.31
2023-01-10T17:55:08.437Z,67.98
2023-01-10T17:59:12.983Z,67.22
2023-01-10T18:03:16.705Z,67.10
2023-01-10T18:07:19.805Z,66.29
2023-01-10T18:11:25.044Z,65.90
2023-01-10T18:15:29.595Z,65.72
2023-01-10T18:19:32.724Z,65.75
2023-01-10T18:23:35.956Z,65.11
2023-01-10T18:27:39.237Z,64.64
2023-01-10T18:31:43.680Z,64.29
2023-01-10T18:35:47.492Z,63.57
2023-01-10T18:39:50.723Z,64.05
2023-01-10T18:43:53.970Z,63.77
2023-01-10T18:47:59.226Z,64.40
2023-01-10T18:52:02.272Z,63.81
2023-01-10T18:56:06.764Z,64.22
2023-01-10T19:00:11.113Z,64.04
2023-01-10T19:04:15.759Z,63.93
2023-01-10T19:08:18.990Z,63.88
2023-01-10T19:12:22.277Z,63.55
2023-01-10T19:16:26.839Z,62.98
2023-01-10T19:20:31.410Z,62.49
2023-01-10T19:24:37.663Z,62.58
2023-01-10T19:28:40.826Z,62.51
2023-01-10T19:32:44.011Z,61.64
2023-01-10T19:36:48.410Z,62.06
2023-01-10T19:40:53.031Z,61.79
2023-01-10T19:44:56.078Z,62.40
2023-01-10T19:49:02.105Z,61.86
2023-01-10T19:53:06.502Z,61.52
2023-01-10T19:57:09.551Z,61.83
2023-01-10T20:01:15.183Z,61.58
2023-01-10T20:05:18.350Z,61.60
2023-01-10T20:09:22.783Z,61.68
2023-01-10T20:13:25.851Z,62.05
2023-01-10T20:17:30.052Z,62.08
2023-01-10T20:21:33.314Z,62.05
2023-01-10T20:25:37.681Z,61.95
2023-01-10T20:29:45.539Z,61.85
2023-01-10T20:33:49.193Z,61.89
2023-01-10T20:37:52.296Z,61.90
2023-01-10T20:41:56.704Z,61.80
2023-01-10T20:46:05.646Z,61.81
2023-01-10T20:50:10.022Z,62.38
2023-01-10T20:54:13.234Z,62.62
2023-01-10T20:58:17.652Z,62.26
2023-01-10T21:02:20.704Z,62.07
2023-01-10T21:06:23.940Z,62.25
2023-01-10T21:10:26.990Z,62.12
2023-01-10T21:14:31.416Z,61.92
2023-01-10T21:18:40.884Z,61.52
2023-01-10T21:22:44.419Z,61.76
2023-01-10T21:26:48.583Z,62.00
2023-01-10T21:30:53.891Z,61.85
2023-01-10T21:34:56.931Z,61.82
2023-01-10T21:38:59.955Z,61.93
2023-01-10T21:43:03.052Z,61.94
2023-01-10T21:47:07.661Z,61.80
2023-01-10T21:51:10.714Z,61.96
2023-01-10T21:55:16.046Z,61.75
2023-01-10T21:59:19.223Z,61.48
2023-01-10T22:03:23.788Z,61.21
2023-01-10T22:07:29.425Z,61.84
2023-01-10T22:11:32.517Z,61.41
2023-01-10T22:15:37.613Z,61.93
2023-01-10T22:19:42.288Z,62.02
2023-01-10T22:23:45.979Z,62.14
2023-01-10T22:27:49.291Z,62.08
2023-01-10T22:31:52.950Z,62.32
2023-01-10T22:35:57.853Z,62.26
2023-01-10T22:40:01.217Z,62.50
2023-01-10T22:44:05.281Z,61.94
2023-01-10T22:48:08.522Z,62.28
2023-01-10T22:52:12.962Z,62.05
2023-01-10T22:56:16.234Z,62.44
2023-01-10T23:00:19.931Z,62.59
2023-01-10T23:04:24.240Z,62.50
2023-01-10T23:08:29.217Z,62.20
2023-01-10T23:12:32.282Z,62.21
2023-01-10T23:16:35.515Z,61.80
2023-01-10T23:20:38.725Z,62.16
2023-01-10T23:24:43.143Z,61.80
2023-01-10T23:28:48.244Z,62.37
2023-01-10T23:32:51.845Z,62.04
2023-01-10T23:36:55.124Z,62.04
2023-01-10T23:41:00.084Z,62.40
2023-01-10T23:45:03.153Z,61.75
2023-01-10T23:49:06.215Z,62.26
2023-01-10T23:53:10.254Z,62.52
2023-01-10T23:57:14.638Z,61.81
